首页
METAR-TAF:

METAR-TAF

机场 :

Childress, 得克萨斯州, 美国

纬度: 34-25-39N, 经度: 100-17-00W, 海拔: 595米

当前天气观测

该预报发布于38分钟前的21:53 UTC
风速18节,风向,有时为24节阵风
温度 9°C
湿度 66%
气压 1025 hPa
能見度: 16.1公里
天空无云

METAR: KCDS 112153Z AUTO 19018G24KT 10SM CLR 09/03 A3028 RMK AO2 SLP259 T00940028

时间: 16:31 (22:31 UTC)

预报

该预报发布于5小时和9分钟前的17:22 UTC
预报有效从11日的 18点(UTC)到 12日的 18点(UTC)
风速10节,风向
能見度: 10公里
散云层高于25000英尺

TAF: KCDS 111722Z 1118/1218 18010KT P6SM SCT250

超过4000个机场的气象观测和天气预报(METAR&TAF报告)。

可查询的气象台以黄色和红色小点在地图上表示。

将鼠标移到小点上方,可查看气象台名称。

然后点击查看天气观测和预报。

如需切换地图:点击带黑十字的绿色按钮放大地图;点击带横线的绿色按钮缩小地图;或者点击绿色箭头查看邻近地区的地图。


METAR-TAF: